sensor_id;sensor_type;location;lat;lon;timestamp;temperature;humidity
2260;DHT22;333;48.800;9.530;2023-04-06T00:00:48;-0.50;99.60
2260;DHT22;333;48.800;9.530;2023-04-06T00:03:18;-0.50;99.60
2260;DHT22;333;48.800;9.530;2023-04-06T00:05:47;-0.40;99.60
2260;DHT22;333;48.800;9.530;2023-04-06T00:08:14;-0.20;99.60
2260;DHT22;333;48.800;9.530;2023-04-06T00:10:43;-0.30;99.60
2260;DHT22;333;48.800;9.530;2023-04-06T00:13:11;-0.40;99.60
2260;DHT22;333;48.800;9.530;2023-04-06T00:15:38;-0.40;99.60
2260;DHT22;333;48.800;9.530;2023-04-06T00:18:05;-0.40;99.60
2260;DHT22;333;48.800;9.530;2023-04-06T00:20:33;-0.50;99.60
2260;DHT22;333;48.800;9.530;2023-04-06T00:23:00;-0.60;99.60
2260;DHT22;333;48.800;9.530;2023-04-06T00:25:27;-0.60;99.60
2260;DHT22;333;48.800;9.530;2023-04-06T00:27:54;-0.70;99.60
2260;DHT22;333;48.800;9.530;2023-04-06T00:30:21;-0.70;99.60
2260;DHT22;333;48.800;9.530;2023-04-06T00:32:48;-0.70;99.60
2260;DHT22;333;48.800;9.530;2023-04-06T00:35:15;-0.80;99.60
2260;DHT22;333;48.800;9.530;2023-04-06T00:37:46;-0.80;99.60
2260;DHT22;333;48.800;9.530;2023-04-06T00:40:13;-0.80;99.60
2260;DHT22;333;48.800;9.530;2023-04-06T00:42:41;-0.80;99.60
2260;DHT22;333;48.800;9.530;2023-04-06T00:45:09;-0.80;99.60
2260;DHT22;333;48.800;9.530;2023-04-06T00:47:36;-0.90;99.60
2260;DHT22;333;48.800;9.530;2023-04-06T00:50:04;-0.90;99.60
2260;DHT22;333;48.800;9.530;2023-04-06T00:52:31;-0.90;99.60
2260;DHT22;333;48.800;9.530;2023-04-06T00:54:59;-0.80;99.60
2260;DHT22;333;48.800;9.530;2023-04-06T00:57:26;-0.90;99.60
2260;DHT22;333;48.800;9.530;2023-04-06T00:59:54;-0.90;99.60
2260;DHT22;333;48.800;9.530;2023-04-06T01:02:21;-1.00;99.60
2260;DHT22;333;48.800;9.530;2023-04-06T01:04:48;-1.00;99.60
2260;DHT22;333;48.800;9.530;2023-04-06T01:07:15;-1.10;99.60
2260;DHT22;333;48.800;9.530;2023-04-06T01:09:42;-1.20;99.60
2260;DHT22;333;48.800;9.530;2023-04-06T01:12:10;-0.90;99.60
2260;DHT22;333;48.800;9.530;2023-04-06T01:14:37;-1.00;99.60
2260;DHT22;333;48.800;9.530;2023-04-06T01:17:04;-1.00;99.60
2260;DHT22;333;48.800;9.530;2023-04-06T01:19:31;-1.10;99.60
2260;DHT22;333;48.800;9.530;2023-04-06T01:21:58;-1.10;99.60
2260;DHT22;333;48.800;9.530;2023-04-06T01:24:26;-1.20;99.60
2260;DHT22;333;48.800;9.530;2023-04-06T01:26:53;-1.30;99.60
2260;DHT22;333;48.800;9.530;2023-04-06T01:29:22;-1.30;99.60
2260;DHT22;333;48.800;9.530;2023-04-06T01:31:49;-1.30;99.60
2260;DHT22;333;48.800;9.530;2023-04-06T01:34:16;-1.20;99.60
2260;DHT22;333;48.800;9.530;2023-04-06T01:36:43;-1.20;99.60
2260;DHT22;333;48.800;9.530;2023-04-06T01:39:10;-1.30;99.60
2260;DHT22;333;48.800;9.530;2023-04-06T01:41:38;-1.40;99.60
2260;DHT22;333;48.800;9.530;2023-04-06T01:44:05;-1.50;99.60
2260;DHT22;333;48.800;9.530;2023-04-06T01:46:32;-1.50;99.60
2260;DHT22;333;48.800;9.530;2023-04-06T01:48:59;-1.60;99.60
2260;DHT22;333;48.800;9.530;2023-04-06T01:51:26;-1.60;99.60
2260;DHT22;333;48.800;9.530;2023-04-06T01:53:53;-1.40;99.60
2260;DHT22;333;48.800;9.530;2023-04-06T01:56:23;-1.60;99.60
2260;DHT22;333;48.800;9.530;2023-04-06T01:58:52;-1.70;99.60
2260;DHT22;333;48.800;9.530;2023-04-06T02:01:19;-1.70;99.60
2260;DHT22;333;48.800;9.530;2023-04-06T02:03:46;-1.70;99.60
2260;DHT22;333;48.800;9.530;2023-04-06T02:06:13;-1.70;99.60
2260;DHT22;333;48.800;9.530;2023-04-06T02:08:40;-1.80;99.60
2260;DHT22;333;48.800;9.530;2023-04-06T02:11:07;-1.80;99.60
2260;DHT22;333;48.800;9.530;2023-04-06T02:13:34;-1.90;99.60
2260;DHT22;333;48.800;9.530;2023-04-06T02:16:02;-2.00;99.60
2260;DHT22;333;48.800;9.530;2023-04-06T02:18:30;-2.00;99.60
2260;DHT22;333;48.800;9.530;2023-04-06T02:20:57;-2.00;99.60
2260;DHT22;333;48.800;9.530;2023-04-06T02:23:24;-2.00;99.60
2260;DHT22;333;48.800;9.530;2023-04-06T02:25:51;-2.00;99.60
2260;DHT22;333;48.800;9.530;2023-04-06T02:28:18;-2.10;99.60
2260;DHT22;333;48.800;9.530;2023-04-06T02:30:45;-2.00;99.60
2260;DHT22;333;48.800;9.530;2023-04-06T02:33:13;-2.00;99.60
2260;DHT22;333;48.800;9.530;2023-04-06T02:35:41;-2.00;99.60
2260;DHT22;333;48.800;9.530;2023-04-06T02:38:07;-1.90;99.60
2260;DHT22;333;48.800;9.530;2023-04-06T02:40:34;-1.90;99.60
2260;DHT22;333;48.800;9.530;2023-04-06T02:43:01;-1.90;99.60
2260;DHT22;333;48.800;9.530;2023-04-06T02:45:28;-1.70;99.60
2260;DHT22;333;48.800;9.530;2023-04-06T02:47:55;-1.60;99.60
2260;DHT22;333;48.800;9.530;2023-04-06T02:50:24;-1.60;99.60
2260;DHT22;333;48.800;9.530;2023-04-06T02:52:53;-1.60;99.60
2260;DHT22;333;48.800;9.530;2023-04-06T02:55:20;-1.70;99.60
2260;DHT22;333;48.800;9.530;2023-04-06T02:57:47;-1.80;99.60
2260;DHT22;333;48.800;9.530;2023-04-06T03:00:14;-1.90;99.60
2260;DHT22;333;48.800;9.530;2023-04-06T03:02:41;-2.00;99.60
2260;DHT22;333;48.800;9.530;2023-04-06T03:05:08;-1.90;99.60
2260;DHT22;333;48.800;9.530;2023-04-06T03:07:36;-2.00;99.60
2260;DHT22;333;48.800;9.530;2023-04-06T03:10:04;-2.00;99.60
2260;DHT22;333;48.800;9.530;2023-04-06T03:12:31;-2.10;99.60
2260;DHT22;333;48.800;9.530;2023-04-06T03:14:58;-2.10;99.60
2260;DHT22;333;48.800;9.530;2023-04-06T03:17:26;-2.10;99.60
2260;DHT22;333;48.800;9.530;2023-04-06T03:19:53;-2.20;99.60
2260;DHT22;333;48.800;9.530;2023-04-06T03:22:20;-2.20;99.60
2260;DHT22;333;48.800;9.530;2023-04-06T03:24:48;-2.00;99.60
2260;DHT22;333;48.800;9.530;2023-04-06T03:27:15;-2.20;99.60
2260;DHT22;333;48.800;9.530;2023-04-06T03:29:42;-2.30;99.60
2260;DHT22;333;48.800;9.530;2023-04-06T03:32:09;-2.20;99.60
2260;DHT22;333;48.800;9.530;2023-04-06T03:34:36;-2.30;99.60
2260;DHT22;333;48.800;9.530;2023-04-06T03:37:03;-2.30;99.60
2260;DHT22;333;48.800;9.530;2023-04-06T03:39:30;-2.30;99.60
2260;DHT22;333;48.800;9.530;2023-04-06T03:41:59;-2.10;99.60
2260;DHT22;333;48.800;9.530;2023-04-06T03:44:26;-2.10;99.60
2260;DHT22;333;48.800;9.530;2023-04-06T03:46:53;-2.30;99.60
2260;DHT22;333;48.800;9.530;2023-04-06T03:49:20;-2.30;99.60
2260;DHT22;333;48.800;9.530;2023-04-06T03:51:46;-2.30;99.60
2260;DHT22;333;48.800;9.530;2023-04-06T03:54:13;-2.20;99.60
2260;DHT22;333;48.800;9.530;2023-04-06T03:56:41;-2.20;99.60
2260;DHT22;333;48.800;9.530;2023-04-06T03:59:09;-2.10;99.60
2260;DHT22;333;48.800;9.530;2023-04-06T04:01:36;-2.20;99.60
2260;DHT22;333;48.800;9.530;2023-04-06T04:04:05;-2.10;99.60
2260;DHT22;333;48.800;9.530;2023-04-06T04:06:32;-2.20;99.60
2260;DHT22;333;48.800;9.530;2023-04-06T04:08:59;-2.30;99.60
2260;DHT22;333;48.800;9.530;2023-04-06T04:11:26;-2.40;99.60
2260;DHT22;333;48.800;9.530;2023-04-06T04:13:53;-2.40;99.60
2260;DHT22;333;48.800;9.530;2023-04-06T04:16:21;-2.40;99.60
2260;DHT22;333;48.800;9.530;2023-04-06T04:18:48;-2.40;99.60
2260;DHT22;333;48.800;9.530;2023-04-06T04:21:15;-2.50;99.60
2260;DHT22;333;48.800;9.530;2023-04-06T04:23:42;-2.60;99.60
2260;DHT22;333;48.800;9.530;2023-04-06T04:26:09;-2.50;99.60
2260;DHT22;333;48.800;9.530;2023-04-06T04:28:36;-2.50;99.60
2260;DHT22;333;48.800;9.530;2023-04-06T04:31:03;-2.40;99.60
2260;DHT22;333;48.800;9.530;2023-04-06T04:33:32;-2.50;99.60
2260;DHT22;333;48.800;9.530;2023-04-06T04:35:59;-2.60;99.60
2260;DHT22;333;48.800;9.530;2023-04-06T04:38:26;-2.50;99.60
2260;DHT22;333;48.800;9.530;2023-04-06T04:40:53;-2.60;99.60
2260;DHT22;333;48.800;9.530;2023-04-06T04:43:20;-2.60;99.60
2260;DHT22;333;48.800;9.530;2023-04-06T04:45:47;-2.50;99.60
2260;DHT22;333;48.800;9.530;2023-04-06T04:48:14;-2.60;99.60
2260;DHT22;333;48.800;9.530;2023-04-06T04:50:42;-2.60;99.60
2260;DHT22;333;48.800;9.530;2023-04-06T04:53:09;-2.70;99.60
2260;DHT22;333;48.800;9.530;2023-04-06T04:55:36;-2.70;99.60
2260;DHT22;333;48.800;9.530;2023-04-06T04:58:03;-2.70;99.60
2260;DHT22;333;48.800;9.530;2023-04-06T05:00:30;-2.80;99.60
2260;DHT22;333;48.800;9.530;2023-04-06T05:02:57;-2.70;99.60
2260;DHT22;333;48.800;9.530;2023-04-06T05:05:24;-2.60;99.60
2260;DHT22;333;48.800;9.530;2023-04-06T05:07:52;-2.60;99.60
2260;DHT22;333;48.800;9.530;2023-04-06T05:10:19;-2.50;99.60
2260;DHT22;333;48.800;9.530;2023-04-06T05:12:46;-2.50;99.60
2260;DHT22;333;48.800;9.530;2023-04-06T05:15:13;-2.50;99.60
2260;DHT22;333;48.800;9.530;2023-04-06T05:17:40;-2.40;99.60
2260;DHT22;333;48.800;9.530;2023-04-06T05:20:08;-2.50;99.60
2260;DHT22;333;48.800;9.530;2023-04-06T05:22:35;-2.40;99.60
2260;DHT22;333;48.800;9.530;2023-04-06T05:25:04;-2.30;99.60
2260;DHT22;333;48.800;9.530;2023-04-06T05:27:32;-2.30;99.60
2260;DHT22;333;48.800;9.530;2023-04-06T05:29:59;-2.20;99.60
2260;DHT22;333;48.800;9.530;2023-04-06T05:32:27;-2.10;99.60
2260;DHT22;333;48.800;9.530;2023-04-06T05:34:54;-2.10;99.60
2260;DHT22;333;48.800;9.530;2023-04-06T05:37:21;-2.00;99.60
2260;DHT22;333;48.800;9.530;2023-04-06T05:39:48;-2.00;99.60
2260;DHT22;333;48.800;9.530;2023-04-06T05:42:17;-1.90;99.60
2260;DHT22;333;48.800;9.530;2023-04-06T05:44:44;-1.90;99.60
2260;DHT22;333;48.800;9.530;2023-04-06T05:47:11;-1.90;99.60
2260;DHT22;333;48.800;9.530;2023-04-06T05:49:38;-1.70;99.60
2260;DHT22;333;48.800;9.530;2023-04-06T05:52:05;-1.60;99.60
2260;DHT22;333;48.800;9.530;2023-04-06T05:54:32;-1.50;99.60
2260;DHT22;333;48.800;9.530;2023-04-06T05:57:01;-1.40;99.60
2260;DHT22;333;48.800;9.530;2023-04-06T05:59:30;-1.40;99.60
2260;DHT22;333;48.800;9.530;2023-04-06T06:01:57;-1.40;99.60
2260;DHT22;333;48.800;9.530;2023-04-06T06:04:24;-1.20;99.60
2260;DHT22;333;48.800;9.530;2023-04-06T06:06:51;-1.20;99.60
2260;DHT22;333;48.800;9.530;2023-04-06T06:09:18;-1.20;99.60
2260;DHT22;333;48.800;9.530;2023-04-06T06:11:45;-1.10;99.60
2260;DHT22;333;48.800;9.530;2023-04-06T06:14:12;-1.00;99.60
2260;DHT22;333;48.800;9.530;2023-04-06T06:16:41;-0.90;99.60
2260;DHT22;333;48.800;9.530;2023-04-06T06:19:08;-0.80;99.60
2260;DHT22;333;48.800;9.530;2023-04-06T06:21:34;-0.70;99.60
2260;DHT22;333;48.800;9.530;2023-04-06T06:24:01;-0.60;99.60
2260;DHT22;333;48.800;9.530;2023-04-06T06:26:29;-0.60;99.60
2260;DHT22;333;48.800;9.530;2023-04-06T06:28:55;-0.60;99.60
2260;DHT22;333;48.800;9.530;2023-04-06T06:31:22;-0.50;99.60
2260;DHT22;333;48.800;9.530;2023-04-06T06:33:51;-0.50;99.60
2260;DHT22;333;48.800;9.530;2023-04-06T06:36:18;-0.40;99.60
2260;DHT22;333;48.800;9.530;2023-04-06T06:38:45;-0.30;99.60
2260;DHT22;333;48.800;9.530;2023-04-06T06:41:12;-0.10;99.60
2260;DHT22;333;48.800;9.530;2023-04-06T06:43:39;-0.10;99.60
2260;DHT22;333;48.800;9.530;2023-04-06T06:46:06;0.00;99.60
2260;DHT22;333;48.800;9.530;2023-04-06T06:48:33;0.10;99.60
2260;DHT22;333;48.800;9.530;2023-04-06T06:51:02;0.30;99.60
2260;DHT22;333;48.800;9.530;2023-04-06T06:53:29;0.30;99.60
2260;DHT22;333;48.800;9.530;2023-04-06T06:55:56;0.50;99.60
2260;DHT22;333;48.800;9.530;2023-04-06T06:58:23;0.60;99.60
2260;DHT22;333;48.800;9.530;2023-04-06T07:00:50;0.70;99.60
2260;DHT22;333;48.800;9.530;2023-04-06T07:03:17;0.90;99.60
2260;DHT22;333;48.800;9.530;2023-04-06T07:05:47;1.10;99.60
2260;DHT22;333;48.800;9.530;2023-04-06T07:08:20;1.20;99.60
2260;DHT22;333;48.800;9.530;2023-04-06T07:10:47;1.30;99.60
2260;DHT22;333;48.800;9.530;2023-04-06T07:13:14;1.50;99.60
2260;DHT22;333;48.800;9.530;2023-04-06T07:15:44;1.70;99.60
2260;DHT22;333;48.800;9.530;2023-04-06T07:18:11;1.80;99.60
2260;DHT22;333;48.800;9.530;2023-04-06T07:20:38;1.90;99.60
2260;DHT22;333;48.800;9.530;2023-04-06T07:23:06;2.00;99.60
2260;DHT22;333;48.800;9.530;2023-04-06T07:25:34;2.10;99.60
2260;DHT22;333;48.800;9.530;2023-04-06T07:28:02;2.30;99.60
2260;DHT22;333;48.800;9.530;2023-04-06T07:30:29;2.30;99.60
2260;DHT22;333;48.800;9.530;2023-04-06T07:32:56;2.30;99.60
2260;DHT22;333;48.800;9.530;2023-04-06T07:35:25;2.60;99.60
2260;DHT22;333;48.800;9.530;2023-04-06T07:37:52;2.80;99.60
2260;DHT22;333;48.800;9.530;2023-04-06T07:40:20;3.10;99.60
2260;DHT22;333;48.800;9.530;2023-04-06T07:42:48;3.20;99.60
2260;DHT22;333;48.800;9.530;2023-04-06T07:45:15;3.40;99.60
2260;DHT22;333;48.800;9.530;2023-04-06T07:47:43;3.60;99.60
2260;DHT22;333;48.800;9.530;2023-04-06T07:50:10;3.70;99.60
2260;DHT22;333;48.800;9.530;2023-04-06T07:52:37;4.00;99.60
2260;DHT22;333;48.800;9.530;2023-04-06T07:55:05;4.20;99.60
2260;DHT22;333;48.800;9.530;2023-04-06T07:57:32;4.40;99.60
2260;DHT22;333;48.800;9.530;2023-04-06T08:00:01;4.50;99.60
2260;DHT22;333;48.800;9.530;2023-04-06T08:02:29;4.60;99.60
2260;DHT22;333;48.800;9.530;2023-04-06T08:04:56;4.80;99.60
2260;DHT22;333;48.800;9.530;2023-04-06T08:07:23;4.90;99.60
2260;DHT22;333;48.800;9.530;2023-04-06T08:09:51;5.20;99.60
2260;DHT22;333;48.800;9.530;2023-04-06T08:12:18;5.30;99.60
2260;DHT22;333;48.800;9.530;2023-04-06T08:14:45;5.50;99.60
2260;DHT22;333;48.800;9.530;2023-04-06T08:17:13;5.60;99.60
2260;DHT22;333;48.800;9.530;2023-04-06T08:19:42;5.90;99.60
2260;DHT22;333;48.800;9.530;2023-04-06T08:22:09;6.00;99.60
2260;DHT22;333;48.800;9.530;2023-04-06T08:24:36;6.10;99.60
2260;DHT22;333;48.800;9.530;2023-04-06T08:27:03;6.20;99.60
2260;DHT22;333;48.800;9.530;2023-04-06T08:29:30;6.30;99.60
2260;DHT22;333;48.800;9.530;2023-04-06T08:31:57;6.50;98.40
2260;DHT22;333;48.800;9.530;2023-04-06T08:34:25;6.40;98.50
2260;DHT22;333;48.800;9.530;2023-04-06T08:36:52;6.50;98.40
2260;DHT22;333;48.800;9.530;2023-04-06T08:39:19;6.80;98.80
2260;DHT22;333;48.800;9.530;2023-04-06T08:41:51;7.00;98.20
2260;DHT22;333;48.800;9.530;2023-04-06T08:44:18;7.20;97.70
2260;DHT22;333;48.800;9.530;2023-04-06T08:46:46;7.30;96.20
2260;DHT22;333;48.800;9.530;2023-04-06T08:49:14;7.30;97.10
2260;DHT22;333;48.800;9.530;2023-04-06T08:51:44;7.40;96.50
2260;DHT22;333;48.800;9.530;2023-04-06T08:54:11;7.50;95.10
2260;DHT22;333;48.800;9.530;2023-04-06T08:56:39;7.50;95.30
2260;DHT22;333;48.800;9.530;2023-04-06T08:59:06;7.60;96.00
2260;DHT22;333;48.800;9.530;2023-04-06T09:01:39;7.60;94.70
2260;DHT22;333;48.800;9.530;2023-04-06T09:04:07;7.80;95.30
2260;DHT22;333;48.800;9.530;2023-04-06T09:06:36;8.20;94.30
2260;DHT22;333;48.800;9.530;2023-04-06T09:09:05;8.50;92.90
2260;DHT22;333;48.800;9.530;2023-04-06T09:11:45;8.50;91.70
2260;DHT22;333;48.800;9.530;2023-04-06T09:14:12;8.50;92.10
2260;DHT22;333;48.800;9.530;2023-04-06T09:16:40;8.70;92.30
2260;DHT22;333;48.800;9.530;2023-04-06T09:19:08;8.90;89.90
2260;DHT22;333;48.800;9.530;2023-04-06T09:21:35;8.80;88.70
2260;DHT22;333;48.800;9.530;2023-04-06T09:24:05;9.00;89.80
2260;DHT22;333;48.800;9.530;2023-04-06T09:26:43;9.10;86.10
2260;DHT22;333;48.800;9.530;2023-04-06T09:29:10;9.30;87.60
2260;DHT22;333;48.800;9.530;2023-04-06T09:31:48;9.50;86.40
2260;DHT22;333;48.800;9.530;2023-04-06T09:34:21;9.50;86.10
2260;DHT22;333;48.800;9.530;2023-04-06T09:36:49;9.40;85.70
2260;DHT22;333;48.800;9.530;2023-04-06T09:39:21;9.80;85.80
2260;DHT22;333;48.800;9.530;2023-04-06T09:41:50;9.90;84.70
2260;DHT22;333;48.800;9.530;2023-04-06T09:44:17;10.30;83.90
2260;DHT22;333;48.800;9.530;2023-04-06T09:46:46;10.40;82.20
2260;DHT22;333;48.800;9.530;2023-04-06T09:49:13;10.90;82.00
2260;DHT22;333;48.800;9.530;2023-04-06T09:51:41;11.40;78.90
2260;DHT22;333;48.800;9.530;2023-04-06T09:54:11;11.60;79.50
2260;DHT22;333;48.800;9.530;2023-04-06T09:56:46;11.90;77.50
2260;DHT22;333;48.800;9.530;2023-04-06T09:59:16;11.90;75.50
2260;DHT22;333;48.800;9.530;2023-04-06T10:01:46;11.60;74.20
2260;DHT22;333;48.800;9.530;2023-04-06T10:04:25;11.50;72.40
2260;DHT22;333;48.800;9.530;2023-04-06T10:06:54;11.30;73.00
2260;DHT22;333;48.800;9.530;2023-04-06T10:09:28;11.00;73.80
2260;DHT22;333;48.800;9.530;2023-04-06T10:12:03;11.00;75.10
2260;DHT22;333;48.800;9.530;2023-04-06T10:14:31;11.40;75.80
2260;DHT22;333;48.800;9.530;2023-04-06T10:16:58;11.90;74.60
2260;DHT22;333;48.800;9.530;2023-04-06T10:19:29;12.50;74.10
2260;DHT22;333;48.800;9.530;2023-04-06T10:21:59;12.20;73.00
2260;DHT22;333;48.800;9.530;2023-04-06T10:24:27;12.20;70.90
2260;DHT22;333;48.800;9.530;2023-04-06T10:26:58;11.80;71.90
2260;DHT22;333;48.800;9.530;2023-04-06T10:29:27;11.70;72.80
2260;DHT22;333;48.800;9.530;2023-04-06T10:31:54;11.80;74.60
2260;DHT22;333;48.800;9.530;2023-04-06T10:34:21;12.00;72.50
2260;DHT22;333;48.800;9.530;2023-04-06T10:36:48;12.10;71.90
2260;DHT22;333;48.800;9.530;2023-04-06T10:39:24;12.20;71.50
2260;DHT22;333;48.800;9.530;2023-04-06T10:41:52;12.80;71.60
2260;DHT22;333;48.800;9.530;2023-04-06T10:44:21;13.00;69.90
2260;DHT22;333;48.800;9.530;2023-04-06T10:46:56;12.30;70.20
2260;DHT22;333;48.800;9.530;2023-04-06T10:49:25;12.20;70.10
2260;DHT22;333;48.800;9.530;2023-04-06T10:51:54;12.70;69.80
2260;DHT22;333;48.800;9.530;2023-04-06T10:54:25;12.30;68.60
2260;DHT22;333;48.800;9.530;2023-04-06T10:56:52;12.30;68.90
2260;DHT22;333;48.800;9.530;2023-04-06T10:59:20;12.30;70.20
2260;DHT22;333;48.800;9.530;2023-04-06T11:01:47;12.50;68.90
2260;DHT22;333;48.800;9.530;2023-04-06T11:04:17;12.40;69.40
2260;DHT22;333;48.800;9.530;2023-04-06T11:06:47;12.80;67.80
2260;DHT22;333;48.800;9.530;2023-04-06T11:09:24;12.80;67.60
2260;DHT22;333;48.800;9.530;2023-04-06T11:11:52;12.30;66.80
2260;DHT22;333;48.800;9.530;2023-04-06T11:14:20;12.30;69.00
2260;DHT22;333;48.800;9.530;2023-04-06T11:16:47;12.50;67.70
2260;DHT22;333;48.800;9.530;2023-04-06T11:19:17;12.80;67.50
2260;DHT22;333;48.800;9.530;2023-04-06T11:21:45;13.20;65.90
2260;DHT22;333;48.800;9.530;2023-04-06T11:24:15;12.60;65.60
2260;DHT22;333;48.800;9.530;2023-04-06T11:26:43;12.50;68.00
2260;DHT22;333;48.800;9.530;2023-04-06T11:29:12;12.70;66.30
2260;DHT22;333;48.800;9.530;2023-04-06T11:31:44;13.10;65.00
2260;DHT22;333;48.800;9.530;2023-04-06T11:34:12;13.00;66.30
2260;DHT22;333;48.800;9.530;2023-04-06T11:36:42;13.00;64.30
2260;DHT22;333;48.800;9.530;2023-04-06T11:39:10;13.70;63.40
2260;DHT22;333;48.800;9.530;2023-04-06T11:41:37;13.90;62.70
2260;DHT22;333;48.800;9.530;2023-04-06T11:44:05;13.00;62.40
2260;DHT22;333;48.800;9.530;2023-04-06T11:46:32;13.00;64.20
2260;DHT22;333;48.800;9.530;2023-04-06T11:49:03;13.10;62.10
2260;DHT22;333;48.800;9.530;2023-04-06T11:51:30;13.90;63.70
2260;DHT22;333;48.800;9.530;2023-04-06T11:53:58;14.30;59.80
2260;DHT22;333;48.800;9.530;2023-04-06T11:56:27;14.30;61.40
2260;DHT22;333;48.800;9.530;2023-04-06T11:58:55;15.00;60.70
2260;DHT22;333;48.800;9.530;2023-04-06T12:01:23;15.50;58.60
2260;DHT22;333;48.800;9.530;2023-04-06T12:03:50;15.40;57.90
2260;DHT22;333;48.800;9.530;2023-04-06T12:06:18;14.50;57.70
2260;DHT22;333;48.800;9.530;2023-04-06T12:08:45;14.60;60.50
2260;DHT22;333;48.800;9.530;2023-04-06T12:11:13;15.30;57.00
2260;DHT22;333;48.800;9.530;2023-04-06T12:13:40;15.40;56.80
2260;DHT22;333;48.800;9.530;2023-04-06T12:16:07;15.60;58.20
2260;DHT22;333;48.800;9.530;2023-04-06T12:18:34;16.20;57.20
2260;DHT22;333;48.800;9.530;2023-04-06T12:21:01;15.10;55.70
2260;DHT22;333;48.800;9.530;2023-04-06T12:23:28;15.20;56.50
2260;DHT22;333;48.800;9.530;2023-04-06T12:25:55;15.50;57.10
2260;DHT22;333;48.800;9.530;2023-04-06T12:28:24;15.20;58.80
2260;DHT22;333;48.800;9.530;2023-04-06T12:30:52;15.50;57.60
2260;DHT22;333;48.800;9.530;2023-04-06T12:33:20;15.60;54.80
2260;DHT22;333;48.800;9.530;2023-04-06T12:35:47;15.60;55.80
2260;DHT22;333;48.800;9.530;2023-04-06T12:38:15;15.90;56.60
2260;DHT22;333;48.800;9.530;2023-04-06T12:40:42;16.40;54.50
2260;DHT22;333;48.800;9.530;2023-04-06T12:43:09;15.90;54.60
2260;DHT22;333;48.800;9.530;2023-04-06T12:45:40;15.80;54.50
2260;DHT22;333;48.800;9.530;2023-04-06T12:48:07;15.20;53.90
2260;DHT22;333;48.800;9.530;2023-04-06T12:50:34;15.10;55.80
2260;DHT22;333;48.800;9.530;2023-04-06T12:53:01;15.60;56.70
2260;DHT22;333;48.800;9.530;2023-04-06T12:55:30;16.20;54.20
2260;DHT22;333;48.800;9.530;2023-04-06T12:57:59;16.20;53.70
2260;DHT22;333;48.800;9.530;2023-04-06T13:00:27;16.00;54.40
2260;DHT22;333;48.800;9.530;2023-04-06T13:02:55;15.20;56.40
2260;DHT22;333;48.800;9.530;2023-04-06T13:05:22;15.60;55.10
2260;DHT22;333;48.800;9.530;2023-04-06T13:07:49;16.40;55.00
2260;DHT22;333;48.800;9.530;2023-04-06T13:10:16;16.60;56.60
2260;DHT22;333;48.800;9.530;2023-04-06T13:12:43;17.40;54.00
2260;DHT22;333;48.800;9.530;2023-04-06T13:15:11;17.10;53.30
2260;DHT22;333;48.800;9.530;2023-04-06T13:17:38;16.60;53.10
2260;DHT22;333;48.800;9.530;2023-04-06T13:20:07;17.40;55.50
2260;DHT22;333;48.800;9.530;2023-04-06T13:22:34;17.60;52.90
2260;DHT22;333;48.800;9.530;2023-04-06T13:25:02;16.90;52.50
2260;DHT22;333;48.800;9.530;2023-04-06T13:27:29;16.10;53.60
2260;DHT22;333;48.800;9.530;2023-04-06T13:29:59;16.70;53.60
2260;DHT22;333;48.800;9.530;2023-04-06T13:32:26;15.40;53.90
2260;DHT22;333;48.800;9.530;2023-04-06T13:34:54;15.50;55.40
2260;DHT22;333;48.800;9.530;2023-04-06T13:37:23;16.20;53.10
2260;DHT22;333;48.800;9.530;2023-04-06T13:39:50;16.60;52.40
2260;DHT22;333;48.800;9.530;2023-04-06T13:42:17;16.00;51.60
2260;DHT22;333;48.800;9.530;2023-04-06T13:44:44;16.40;53.10
2260;DHT22;333;48.800;9.530;2023-04-06T13:47:13;16.80;53.00
2260;DHT22;333;48.800;9.530;2023-04-06T13:49:40;17.30;51.20
2260;DHT22;333;48.800;9.530;2023-04-06T13:52:07;17.00;51.40
2260;DHT22;333;48.800;9.530;2023-04-06T13:54:36;16.60;52.70
2260;DHT22;333;48.800;9.530;2023-04-06T13:57:04;16.40;53.90
2260;DHT22;333;48.800;9.530;2023-04-06T13:59:33;16.50;54.20
2260;DHT22;333;48.800;9.530;2023-04-06T14:02:00;17.00;53.90
2260;DHT22;333;48.800;9.530;2023-04-06T14:04:27;17.20;53.30
2260;DHT22;333;48.800;9.530;2023-04-06T14:06:54;17.70;54.20
2260;DHT22;333;48.800;9.530;2023-04-06T14:09:21;17.40;51.50
2260;DHT22;333;48.800;9.530;2023-04-06T14:11:50;17.00;53.10
2260;DHT22;333;48.800;9.530;2023-04-06T14:14:17;16.70;52.50
2260;DHT22;333;48.800;9.530;2023-04-06T14:16:44;16.60;52.10
2260;DHT22;333;48.800;9.530;2023-04-06T14:19:12;16.10;52.50
2260;DHT22;333;48.800;9.530;2023-04-06T14:21:40;15.70;52.70
2260;DHT22;333;48.800;9.530;2023-04-06T14:24:07;15.30;53.90
2260;DHT22;333;48.800;9.530;2023-04-06T14:26:35;15.30;54.20
2260;DHT22;333;48.800;9.530;2023-04-06T14:29:04;15.30;54.90
2260;DHT22;333;48.800;9.530;2023-04-06T14:31:31;15.80;54.50
2260;DHT22;333;48.800;9.530;2023-04-06T14:34:01;15.80;53.20
2260;DHT22;333;48.800;9.530;2023-04-06T14:36:28;15.60;53.90
2260;DHT22;333;48.800;9.530;2023-04-06T14:38:57;15.10;53.10
2260;DHT22;333;48.800;9.530;2023-04-06T14:41:24;15.20;53.10
2260;DHT22;333;48.800;9.530;2023-04-06T14:43:51;15.20;52.40
2260;DHT22;333;48.800;9.530;2023-04-06T14:46:20;15.10;53.50
2260;DHT22;333;48.800;9.530;2023-04-06T14:48:47;15.10;53.80
2260;DHT22;333;48.800;9.530;2023-04-06T14:51:14;15.30;52.30
2260;DHT22;333;48.800;9.530;2023-04-06T14:53:42;15.50;52.90
2260;DHT22;333;48.800;9.530;2023-04-06T14:56:09;15.30;52.50
2260;DHT22;333;48.800;9.530;2023-04-06T14:58:36;14.90;53.90
2260;DHT22;333;48.800;9.530;2023-04-06T15:01:03;15.50;52.50
2260;DHT22;333;48.800;9.530;2023-04-06T15:03:32;15.70;52.30
2260;DHT22;333;48.800;9.530;2023-04-06T15:05:59;15.50;52.50
2260;DHT22;333;48.800;9.530;2023-04-06T15:08:26;15.60;53.10
2260;DHT22;333;48.800;9.530;2023-04-06T15:10:53;16.00;55.00
2260;DHT22;333;48.800;9.530;2023-04-06T15:13:22;14.80;58.30
2260;DHT22;333;48.800;9.530;2023-04-06T15:15:50;15.30;58.40
2260;DHT22;333;48.800;9.530;2023-04-06T15:18:18;16.10;58.70
2260;DHT22;333;48.800;9.530;2023-04-06T15:20:46;16.20;56.40
2260;DHT22;333;48.800;9.530;2023-04-06T15:23:13;15.80;55.50
2260;DHT22;333;48.800;9.530;2023-04-06T15:25:40;15.60;56.50
2260;DHT22;333;48.800;9.530;2023-04-06T15:28:07;15.20;57.50
2260;DHT22;333;48.800;9.530;2023-04-06T15:30:35;14.40;57.20
2260;DHT22;333;48.800;9.530;2023-04-06T15:33:04;14.10;58.50
2260;DHT22;333;48.800;9.530;2023-04-06T15:35:31;14.30;59.10
2260;DHT22;333;48.800;9.530;2023-04-06T15:38:01;14.90;58.50
2260;DHT22;333;48.800;9.530;2023-04-06T15:40:28;15.40;57.30
2260;DHT22;333;48.800;9.530;2023-04-06T15:42:55;15.00;56.50
2260;DHT22;333;48.800;9.530;2023-04-06T15:45:22;15.20;57.30
2260;DHT22;333;48.800;9.530;2023-04-06T15:47:50;15.20;56.10
2260;DHT22;333;48.800;9.530;2023-04-06T15:50:17;14.70;57.20
2260;DHT22;333;48.800;9.530;2023-04-06T15:52:44;14.50;58.20
2260;DHT22;333;48.800;9.530;2023-04-06T15:55:12;14.60;58.40
2260;DHT22;333;48.800;9.530;2023-04-06T15:57:40;14.70;59.00
2260;DHT22;333;48.800;9.530;2023-04-06T16:00:08;14.20;58.50
2260;DHT22;333;48.800;9.530;2023-04-06T16:02:35;14.10;59.20
2260;DHT22;333;48.800;9.530;2023-04-06T16:05:02;14.10;59.50
2260;DHT22;333;48.800;9.530;2023-04-06T16:07:30;14.20;57.90
2260;DHT22;333;48.800;9.530;2023-04-06T16:09:58;13.70;58.20
2260;DHT22;333;48.800;9.530;2023-04-06T16:12:26;13.50;58.70
2260;DHT22;333;48.800;9.530;2023-04-06T16:14:53;13.60;59.80
2260;DHT22;333;48.800;9.530;2023-04-06T16:17:21;13.80;59.20
2260;DHT22;333;48.800;9.530;2023-04-06T16:19:48;13.60;58.90
2260;DHT22;333;48.800;9.530;2023-04-06T16:22:15;13.60;59.60
2260;DHT22;333;48.800;9.530;2023-04-06T16:24:42;13.40;59.00